createdAt,value
2023-04-27T04:26:39.594Z,100489.06
2023-04-27T04:30:43.811Z,100489.06
2023-04-27T04:34:52.806Z,100495.50
2023-04-27T04:38:57.469Z,100507.81
2023-04-27T04:43:00.853Z,100498.03
2023-04-27T04:47:04.122Z,100505.94
2023-04-27T04:51:07.296Z,100513.03
2023-04-27T04:55:10.743Z,100515.66
2023-04-27T04:59:13.569Z,100514.31
2023-04-27T05:03:18.117Z,100527.47
2023-04-27T05:07:24.795Z,100511.41
2023-04-27T05:11:28.261Z,100524.41
2023-04-27T05:15:31.499Z,100524.31
2023-04-27T05:19:35.157Z,100528.50
2023-04-27T05:23:38.738Z,100532.50
2023-04-27T05:27:41.981Z,100528.44
2023-04-27T05:31:44.598Z,100536.59
2023-04-27T05:35:47.633Z,100533.47
2023-04-27T05:39:50.393Z,100544.22
2023-04-27T05:43:53.675Z,100552.59
2023-04-27T05:47:56.340Z,100550.19
2023-04-27T05:56:18.763Z,100560.53
2023-04-27T06:00:23.063Z,100554.69
2023-04-27T06:04:39.480Z,100560.03
2023-04-27T06:08:54.917Z,100558.25
2023-04-27T06:13:08.361Z,100561.12
2023-04-27T06:17:31.901Z,100565.16
2023-04-27T06:21:35.324Z,100567.66
2023-04-27T06:25:40.940Z,100578.09
2023-04-27T06:30:08.905Z,100576.97
2023-04-27T06:38:37.340Z,100574.22
2023-04-27T06:42:40.905Z,100578.47
2023-04-27T06:46:46.096Z,100580.38
2023-04-27T06:50:52.852Z,100584.16
2023-04-27T06:54:55.954Z,100593.37
2023-04-27T06:59:02.493Z,100588.22
2023-04-27T07:03:05.652Z,100598.62
2023-04-27T07:07:09.077Z,100585.09
2023-04-27T07:11:20.280Z,100598.12
2023-04-27T07:15:23.581Z,100585.84
2023-04-27T07:19:31.182Z,100596.03
2023-04-27T07:23:35.350Z,100594.16
2023-04-27T07:27:42.361Z,100591.38
2023-04-27T07:31:53.261Z,100595.81
2023-04-27T07:36:03.964Z,100600.78
2023-04-27T07:40:24.082Z,100596.94
2023-04-27T07:44:27.367Z,100589.81
2023-04-27T07:48:31.059Z,100592.78
2023-04-27T07:52:38.028Z,100602.03
2023-04-27T07:56:46.559Z,100598.41
2023-04-27T08:00:49.464Z,100602.84
2023-04-27T08:05:13.097Z,100601.34
2023-04-27T08:09:17.145Z,100595.94
2023-04-27T08:13:21.046Z,100604.09
2023-04-27T08:17:24.254Z,100599.66
2023-04-27T08:21:29.437Z,100597.03
2023-04-27T08:25:39.354Z,100603.31
2023-04-27T08:29:57.903Z,100606.41
2023-04-27T08:34:00.839Z,100603.06
2023-04-27T08:38:07.324Z,100604.56
2023-04-27T08:42:19.943Z,100605.06
2023-04-27T08:46:29.431Z,100609.03
2023-04-27T08:50:34.290Z,100608.72
2023-04-27T08:54:43.844Z,100604.53
2023-04-27T08:59:16.291Z,100607.72
2023-04-27T09:03:45.272Z,100607.72
2023-04-27T09:08:11.182Z,100594.47
2023-04-27T09:12:23.422Z,100595.00
2023-04-27T09:16:32.216Z,100598.22
2023-04-27T09:20:46.395Z,100583.09
2023-04-27T09:24:52.685Z,100578.06
2023-04-27T09:29:21.925Z,100588.91
2023-04-27T09:33:36.922Z,100589.09
2023-04-27T09:37:52.977Z,100584.56
2023-04-27T09:42:01.751Z,100580.16
2023-04-27T09:46:10.539Z,100577.09
2023-04-27T09:50:18.652Z,100570.09
2023-04-27T09:54:28.806Z,100569.97
2023-04-27T09:59:02.465Z,100565.09
2023-04-27T10:03:23.807Z,100564.78
2023-04-27T10:07:32.024Z,100559.44
2023-04-27T10:11:48.200Z,100557.94
2023-04-27T10:16:18.707Z,100553.84
2023-04-27T10:20:33.998Z,100542.91
2023-04-27T10:24:46.477Z,100548.44
2023-04-27T10:29:15.185Z,100539.47
2023-04-27T10:33:22.264Z,100544.19
2023-04-27T10:37:45.850Z,100535.03
2023-04-27T10:41:59.984Z,100539.06
2023-04-27T10:46:14.018Z,100541.53
2023-04-27T10:50:18.830Z,100540.62
2023-04-27T10:54:21.785Z,100537.09
2023-04-27T10:58:34.680Z,100549.44
2023-04-27T11:02:47.948Z,100534.63
2023-04-27T11:06:51.295Z,100530.94
2023-04-27T11:10:54.136Z,100532.84
2023-04-27T11:15:00.369Z,100528.94
2023-04-27T11:19:07.016Z,100530.84
2023-04-27T11:23:13.075Z,100535.97
2023-04-27T11:27:16.741Z,100527.75
2023-04-27T11:31:22.021Z,100527.06
2023-04-27T11:35:34.888Z,100524.87
2023-04-27T11:39:41.806Z,100519.16
2023-04-27T11:43:49.616Z,100522.44
2023-04-27T11:47:55.569Z,100521.87
2023-04-27T11:52:01.331Z,100514.47
2023-04-27T11:56:11.572Z,100513.75
2023-04-27T12:00:17.554Z,100514.16
2023-04-27T12:04:25.228Z,100518.66
2023-04-27T12:08:28.208Z,100512.66
2023-04-27T12:12:31.419Z,100515.72
2023-04-27T12:16:34.413Z,100506.59
2023-04-27T12:20:38.490Z,100496.94
2023-04-27T12:24:44.077Z,100501.91
2023-04-27T12:28:47.657Z,100506.09
2023-04-27T12:32:51.445Z,100500.94
2023-04-27T12:36:55.619Z,100488.88
2023-04-27T12:41:02.343Z,100496.78
2023-04-27T12:45:07.255Z,100489.16
2023-04-27T12:49:11.597Z,100494.44
2023-04-27T12:53:19.367Z,100494.09
2023-04-27T12:57:41.538Z,100488.34
2023-04-27T13:02:07.841Z,100487.56
2023-04-27T13:06:12.207Z,100490.03
2023-04-27T13:10:42.592Z,100485.00
2023-04-27T13:14:46.712Z,100490.09
2023-04-27T13:18:52.471Z,100487.59
2023-04-27T13:23:05.157Z,100485.00
2023-04-27T13:27:10.274Z,100488.66
2023-04-27T13:31:21.039Z,100486.31
2023-04-27T13:35:45.058Z,100481.28
2023-04-27T13:39:47.660Z,100477.22
2023-04-27T13:43:51.266Z,100481.34
2023-04-27T13:47:55.687Z,100483.47
2023-04-27T13:52:19.639Z,100478.88
2023-04-27T13:56:25.032Z,100476.38
2023-04-27T14:00:34.641Z,100486.72
2023-04-27T14:04:42.398Z,100479.06
2023-04-27T14:08:46.744Z,100476.59
2023-04-27T14:12:50.291Z,100478.72
2023-04-27T14:16:53.630Z,100471.69
2023-04-27T14:20:56.740Z,100490.47
2023-04-27T14:25:00.440Z,100494.13
2023-04-27T14:29:03.687Z,100488.41
2023-04-27T14:33:06.955Z,100488.06
2023-04-27T14:37:10.254Z,100490.41
2023-04-27T14:41:13.097Z,100499.38
2023-04-27T14:45:17.463Z,100500.81
2023-04-27T14:49:21.221Z,100496.16
2023-04-27T14:53:26.099Z,100498.88
2023-04-27T14:57:29.942Z,100499.69
2023-04-27T15:01:36.631Z,100506.88
2023-04-27T15:05:39.490Z,100499.62
2023-04-27T15:09:42.530Z,100498.06
2023-04-27T15:13:45.863Z,100501.03
2023-04-27T15:17:48.895Z,100502.50
2023-04-27T15:21:51.701Z,100499.84
2023-04-27T15:25:56.172Z,100504.22
2023-04-27T15:29:58.961Z,100504.66
2023-04-27T15:34:02.024Z,100484.03
2023-04-27T15:38:05.991Z,100495.25
2023-04-27T15:42:08.959Z,100504.34
2023-04-27T15:46:12.311Z,100502.41
2023-04-27T15:50:16.036Z,100496.72
